createdAt,value
2023-03-18T00:00:31.947Z,806.00
2023-03-18T00:01:21.840Z,798.00
2023-03-18T00:02:12.042Z,824.00
2023-03-18T00:03:02.111Z,822.00
2023-03-18T00:03:52.141Z,818.00
2023-03-18T00:04:42.155Z,810.00
2023-03-18T00:05:32.236Z,812.00
2023-03-18T00:06:22.258Z,784.00
2023-03-18T00:07:12.321Z,808.00
2023-03-18T00:08:02.388Z,783.00
2023-03-18T00:08:52.443Z,781.00
2023-03-18T00:09:42.468Z,793.00
2023-03-18T00:10:32.891Z,785.00
2023-03-18T00:11:22.544Z,805.00
2023-03-18T00:12:12.586Z,810.00
2023-03-18T00:13:02.680Z,803.00
2023-03-18T00:13:52.707Z,813.00
2023-03-18T00:14:42.784Z,810.00
2023-03-18T00:15:32.806Z,827.00
2023-03-18T00:16:22.907Z,810.00
2023-03-18T00:17:12.931Z,795.00
2023-03-18T00:18:03.256Z,788.00
2023-03-18T00:18:53.284Z,802.00
2023-03-18T00:19:43.359Z,771.00
2023-03-18T00:20:33.689Z,772.00
2023-03-18T00:21:23.446Z,786.00
2023-03-18T00:22:13.551Z,805.00
2023-03-18T00:23:03.645Z,786.00
2023-03-18T00:23:53.692Z,748.00
2023-03-18T00:24:43.752Z,733.00
2023-03-18T00:25:33.792Z,733.00
2023-03-18T00:26:23.861Z,735.00
2023-03-18T00:27:13.927Z,740.00
2023-03-18T00:28:04.008Z,745.00
2023-03-18T00:28:54.043Z,737.00
2023-03-18T00:29:44.084Z,763.00
2023-03-18T00:30:34.298Z,773.00
2023-03-18T00:31:24.209Z,773.00
2023-03-18T00:32:14.460Z,759.00
2023-03-18T00:33:04.587Z,729.00
2023-03-18T00:33:54.617Z,735.00
2023-03-18T00:34:44.654Z,723.00
2023-03-18T00:35:34.741Z,729.00
2023-03-18T00:36:24.776Z,741.00
2023-03-18T00:37:14.837Z,744.00
2023-03-18T00:38:04.889Z,748.00
2023-03-18T00:38:54.928Z,759.00
2023-03-18T00:39:44.960Z,739.00
2023-03-18T00:40:34.990Z,751.00
2023-03-18T00:41:25.327Z,743.00
2023-03-18T00:42:15.396Z,745.00
2023-03-18T00:43:05.473Z,746.00
2023-03-18T00:43:55.781Z,737.00
2023-03-18T00:44:45.802Z,734.00
2023-03-18T00:45:35.827Z,723.00
2023-03-18T00:46:26.096Z,730.00
2023-03-18T00:47:15.954Z,750.00
2023-03-18T00:48:06.044Z,774.00
2023-03-18T00:48:56.116Z,772.00
2023-03-18T00:49:46.143Z,770.00
2023-03-18T00:50:36.300Z,767.00
2023-03-18T00:51:26.385Z,787.00
2023-03-18T00:52:16.416Z,799.00
2023-03-18T00:53:06.463Z,754.00
2023-03-18T00:53:56.507Z,769.00
2023-03-18T00:54:46.545Z,789.00
2023-03-18T00:55:36.571Z,782.00
2023-03-18T00:56:26.659Z,758.00
2023-03-18T00:57:16.725Z,776.00
2023-03-18T00:58:06.806Z,783.00
2023-03-18T00:58:56.859Z,790.00
2023-03-18T00:59:46.891Z,800.00
2023-03-18T01:00:36.986Z,796.00
2023-03-18T01:01:27.045Z,775.00
2023-03-18T01:02:17.138Z,744.00
2023-03-18T01:03:07.099Z,742.00
2023-03-18T01:03:57.148Z,739.00
2023-03-18T01:04:47.215Z,736.00
2023-03-18T01:05:37.226Z,756.00
2023-03-18T01:06:27.318Z,741.00
2023-03-18T01:07:17.344Z,762.00
2023-03-18T01:08:07.417Z,770.00
2023-03-18T01:08:57.465Z,782.00
2023-03-18T01:09:47.500Z,795.00
2023-03-18T01:10:37.565Z,795.00
2023-03-18T01:11:27.647Z,789.00
2023-03-18T01:12:17.682Z,757.00
2023-03-18T01:13:08.015Z,749.00
2023-03-18T01:13:58.097Z,742.00
2023-03-18T01:14:48.159Z,725.00
2023-03-18T01:15:38.450Z,705.00
2023-03-18T01:16:28.622Z,742.00
2023-03-18T01:17:18.572Z,751.00
2023-03-18T01:18:08.614Z,736.00
2023-03-18T01:18:58.685Z,765.00
2023-03-18T01:19:48.716Z,700.00
2023-03-18T01:20:38.763Z,684.00
2023-03-18T01:21:28.819Z,699.00
2023-03-18T01:22:18.850Z,698.00
2023-03-18T01:23:08.936Z,687.00
2023-03-18T01:23:58.977Z,706.00
2023-03-18T01:24:49.016Z,700.00
2023-03-18T01:25:39.040Z,718.00
2023-03-18T01:26:29.132Z,714.00
2023-03-18T01:27:19.165Z,713.00
2023-03-18T01:28:09.236Z,672.00
2023-03-18T01:28:59.323Z,657.00
2023-03-18T01:29:49.354Z,645.00
2023-03-18T01:30:39.403Z,639.00
2023-03-18T01:31:29.745Z,645.00
2023-03-18T01:32:19.737Z,651.00
2023-03-18T01:33:09.928Z,655.00
2023-03-18T01:34:00.135Z,654.00
2023-03-18T01:34:50.215Z,655.00
2023-03-18T01:35:40.317Z,648.00
2023-03-18T01:36:30.587Z,632.00
2023-03-18T01:37:20.610Z,644.00
2023-03-18T01:38:10.686Z,632.00
2023-03-18T01:39:00.773Z,629.00
2023-03-18T01:39:50.794Z,634.00
2023-03-18T01:40:40.857Z,637.00
2023-03-18T01:41:30.931Z,648.00
2023-03-18T01:42:20.972Z,646.00
2023-03-18T01:43:11.004Z,644.00
2023-03-18T01:44:01.087Z,644.00
2023-03-18T01:44:51.118Z,644.00
2023-03-18T01:45:41.480Z,647.00
2023-03-18T01:46:31.458Z,640.00
2023-03-18T01:47:21.522Z,640.00
2023-03-18T01:48:11.600Z,646.00
2023-03-18T01:49:01.635Z,649.00
2023-03-18T01:49:51.670Z,633.00
2023-03-18T01:50:41.704Z,624.00
2023-03-18T01:51:31.801Z,630.00
2023-03-18T01:52:21.802Z,638.00
2023-03-18T01:53:11.888Z,638.00
2023-03-18T01:54:01.918Z,647.00
2023-03-18T01:54:51.949Z,657.00
2023-03-18T01:55:42.014Z,648.00
2023-03-18T01:56:32.090Z,636.00
2023-03-18T01:57:22.115Z,635.00
2023-03-18T01:58:12.195Z,627.00
2023-03-18T01:59:02.244Z,642.00
2023-03-18T01:59:52.267Z,646.00
2023-03-18T02:00:42.373Z,646.00
2023-03-18T02:01:32.736Z,657.00
2023-03-18T02:02:22.681Z,655.00
2023-03-18T02:03:12.783Z,647.00
2023-03-18T02:04:02.830Z,640.00
2023-03-18T02:04:52.869Z,630.00
2023-03-18T02:05:42.894Z,632.00
2023-03-18T02:06:32.973Z,623.00
2023-03-18T02:07:23.038Z,633.00
2023-03-18T02:08:13.098Z,624.00
2023-03-18T02:09:03.141Z,623.00
2023-03-18T02:09:53.174Z,624.00
2023-03-18T02:10:43.243Z,619.00
2023-03-18T02:11:33.331Z,624.00
2023-03-18T02:12:23.351Z,620.00
2023-03-18T02:13:13.414Z,620.00
2023-03-18T02:14:03.480Z,611.00
2023-03-18T02:14:53.527Z,611.00
2023-03-18T02:15:43.551Z,609.00
2023-03-18T02:16:33.710Z,610.00
2023-03-18T02:17:23.636Z,610.00
2023-03-18T02:18:13.719Z,612.00
2023-03-18T02:19:03.765Z,600.00
2023-03-18T02:19:53.803Z,609.00
2023-03-18T02:20:43.836Z,601.00
2023-03-18T02:21:33.913Z,602.00
2023-03-18T02:22:23.928Z,607.00
2023-03-18T02:23:14.020Z,610.00
2023-03-18T02:24:04.036Z,604.00
2023-03-18T02:24:54.071Z,605.00
2023-03-18T02:25:44.102Z,607.00
2023-03-18T02:26:34.185Z,604.00
2023-03-18T02:27:24.216Z,601.00
2023-03-18T02:28:14.280Z,607.00
2023-03-18T02:29:04.336Z,608.00
2023-03-18T02:29:54.376Z,604.00
2023-03-18T02:30:44.487Z,602.00
2023-03-18T02:31:34.480Z,601.00
2023-03-18T02:32:24.515Z,597.00
2023-03-18T02:33:14.549Z,594.00
2023-03-18T02:34:04.603Z,596.00
2023-03-18T02:34:54.681Z,597.00
2023-03-18T02:35:44.816Z,590.00
2023-03-18T02:36:34.769Z,608.00
2023-03-18T02:37:24.812Z,601.00
2023-03-18T02:38:14.886Z,603.00
2023-03-18T02:39:04.957Z,598.00
2023-03-18T02:39:54.977Z,600.00
2023-03-18T02:40:45.025Z,597.00
2023-03-18T02:41:35.085Z,592.00
2023-03-18T02:42:25.118Z,589.00
2023-03-18T02:43:15.160Z,589.00
2023-03-18T02:44:05.202Z,589.00
2023-03-18T02:44:55.238Z,597.00
2023-03-18T02:45:45.343Z,599.00
2023-03-18T02:46:35.349Z,592.00
2023-03-18T02:47:25.371Z,593.00
2023-03-18T02:48:15.458Z,586.00
2023-03-18T02:49:05.521Z,581.00
2023-03-18T02:49:55.548Z,595.00
2023-03-18T02:50:45.620Z,597.00
2023-03-18T02:51:35.634Z,600.00
2023-03-18T02:52:25.667Z,599.00
2023-03-18T02:53:15.704Z,594.00
2023-03-18T02:54:05.753Z,594.00
2023-03-18T02:54:55.948Z,598.00
2023-03-18T02:55:45.965Z,602.00
2023-03-18T02:56:36.004Z,603.00
2023-03-18T02:57:26.036Z,611.00
2023-03-18T02:58:16.116Z,614.00
2023-03-18T02:59:06.167Z,601.00
2023-03-18T02:59:56.210Z,593.00
2023-03-18T03:00:46.251Z,591.00
2023-03-18T03:01:36.386Z,593.00
2023-03-18T03:02:26.421Z,586.00
2023-03-18T03:03:16.580Z,590.00
2023-03-18T03:04:06.500Z,588.00
2023-03-18T03:04:56.541Z,598.00
2023-03-18T03:05:46.576Z,599.00
2023-03-18T03:06:36.640Z,586.00
2023-03-18T03:07:26.654Z,584.00
2023-03-18T03:08:16.789Z,582.00
2023-03-18T03:09:06.841Z,582.00
2023-03-18T03:09:56.878Z,584.00
2023-03-18T03:10:46.942Z,585.00
2023-03-18T03:11:36.988Z,572.00
2023-03-18T03:12:27.007Z,583.00
2023-03-18T03:13:17.084Z,583.00
2023-03-18T03:14:07.139Z,588.00
2023-03-18T03:14:57.181Z,589.00
2023-03-18T03:15:47.254Z,590.00
2023-03-18T03:16:37.276Z,592.00
2023-03-18T03:17:27.369Z,593.00
2023-03-18T03:18:17.426Z,585.00
2023-03-18T03:19:07.471Z,582.00
2023-03-18T03:19:57.517Z,573.00
2023-03-18T03:20:47.545Z,574.00
2023-03-18T03:21:37.582Z,572.00
2023-03-18T03:22:27.621Z,580.00
2023-03-18T03:23:17.673Z,582.00
2023-03-18T03:24:07.712Z,574.00
2023-03-18T03:24:57.746Z,587.00
2023-03-18T03:25:47.777Z,599.00
2023-03-18T03:26:37.877Z,598.00
2023-03-18T03:27:27.907Z,592.00
2023-03-18T03:28:17.980Z,596.00
2023-03-18T03:29:08.013Z,598.00
2023-03-18T03:29:58.049Z,598.00
2023-03-18T03:30:48.125Z,588.00
2023-03-18T03:31:38.138Z,595.00
2023-03-18T03:32:28.188Z,588.00
2023-03-18T03:33:18.209Z,598.00
2023-03-18T03:34:08.259Z,604.00
2023-03-18T03:34:58.334Z,604.00
2023-03-18T03:35:48.452Z,597.00
2023-03-18T03:36:38.442Z,593.00
2023-03-18T03:37:28.477Z,602.00
2023-03-18T03:38:18.555Z,600.00
2023-03-18T03:39:08.619Z,595.00
2023-03-18T03:39:58.636Z,588.00
2023-03-18T03:40:48.666Z,590.00
2023-03-18T03:41:38.720Z,592.00
2023-03-18T03:42:28.773Z,592.00
2023-03-18T03:43:18.825Z,575.00
2023-03-18T03:44:08.890Z,582.00
2023-03-18T03:44:58.925Z,586.00
2023-03-18T03:45:48.955Z,574.00
2023-03-18T03:46:39.129Z,575.00
2023-03-18T03:47:29.073Z,574.00
2023-03-18T03:48:19.154Z,594.00
2023-03-18T03:49:09.209Z,582.00
2023-03-18T03:49:59.259Z,574.00
2023-03-18T03:50:49.295Z,574.00
2023-03-18T03:51:39.331Z,567.00
2023-03-18T03:52:29.371Z,565.00
2023-03-18T03:53:19.406Z,566.00
2023-03-18T03:54:09.463Z,566.00
2023-03-18T03:54:59.548Z,576.00
2023-03-18T03:55:49.597Z,575.00
2023-03-18T03:56:39.644Z,579.00
2023-03-18T03:57:29.687Z,593.00
2023-03-18T03:58:19.737Z,602.00
2023-03-18T03:59:09.766Z,606.00
2023-03-18T03:59:59.799Z,603.00
2023-03-18T04:00:49.832Z,604.00
2023-03-18T04:01:39.909Z,610.00
2023-03-18T04:02:29.986Z,599.00
2023-03-18T04:03:20.038Z,596.00
2023-03-18T04:04:10.090Z,600.00
2023-03-18T04:05:00.133Z,592.00
2023-03-18T04:05:50.149Z,604.00
2023-03-18T04:06:40.226Z,599.00
2023-03-18T04:07:30.259Z,608.00
2023-03-18T04:08:20.298Z,608.00
2023-03-18T04:09:10.351Z,619.00
2023-03-18T04:10:00.392Z,631.00
2023-03-18T04:10:50.448Z,642.00
2023-03-18T04:11:40.527Z,643.00
2023-03-18T04:12:30.557Z,649.00
2023-03-18T04:13:20.646Z,655.00
2023-03-18T04:14:10.712Z,648.00
2023-03-18T04:15:00.713Z,654.00
2023-03-18T04:15:50.817Z,647.00
2023-03-18T04:16:40.833Z,649.00
2023-03-18T04:17:30.873Z,644.00
2023-03-18T04:18:20.945Z,641.00
2023-03-18T04:19:11.002Z,635.00
2023-03-18T04:20:01.025Z,632.00
2023-03-18T04:20:51.068Z,635.00
2023-03-18T04:21:41.152Z,627.00
2023-03-18T04:22:31.188Z,620.00
2023-03-18T04:23:21.262Z,617.00
2023-03-18T04:24:11.579Z,612.00
2023-03-18T04:25:01.599Z,613.00
2023-03-18T04:25:51.629Z,607.00
2023-03-18T04:26:41.706Z,600.00
2023-03-18T04:27:31.736Z,588.00
2023-03-18T04:28:21.816Z,587.00
2023-03-18T04:29:11.876Z,583.00
2023-03-18T04:30:01.939Z,589.00
2023-03-18T04:30:51.988Z,603.00
2023-03-18T04:31:42.106Z,595.00
2023-03-18T04:32:32.117Z,597.00
2023-03-18T04:33:22.149Z,597.00
2023-03-18T04:34:12.190Z,591.00
2023-03-18T04:35:02.231Z,590.00
2023-03-18T04:35:52.284Z,584.00
2023-03-18T04:36:42.318Z,580.00
2023-03-18T04:37:32.386Z,578.00
2023-03-18T04:38:22.457Z,580.00
2023-03-18T04:39:12.504Z,578.00
2023-03-18T04:40:02.550Z,585.00
2023-03-18T04:40:52.600Z,584.00
2023-03-18T04:41:42.622Z,569.00
2023-03-18T04:42:32.656Z,578.00
2023-03-18T04:43:22.703Z,586.00
2023-03-18T04:44:12.786Z,573.00
2023-03-18T04:45:02.827Z,569.00
2023-03-18T04:45:52.895Z,556.00
2023-03-18T04:46:42.944Z,563.00
2023-03-18T04:47:32.943Z,571.00
2023-03-18T04:48:23.030Z,571.00
2023-03-18T04:49:13.075Z,577.00
2023-03-18T04:50:03.136Z,581.00
2023-03-18T04:50:53.197Z,568.00
2023-03-18T04:51:43.306Z,563.00
2023-03-18T04:52:33.343Z,570.00
2023-03-18T04:53:23.396Z,576.00
2023-03-18T04:54:13.448Z,570.00
2023-03-18T04:55:03.500Z,571.00
2023-03-18T04:55:53.528Z,591.00
2023-03-18T04:56:43.607Z,598.00
2023-03-18T04:57:33.645Z,605.00
2023-03-18T04:58:23.690Z,606.00
2023-03-18T04:59:13.740Z,597.00
2023-03-18T05:00:03.782Z,598.00
2023-03-18T05:00:53.864Z,601.00
2023-03-18T05:01:43.884Z,610.00
2023-03-18T05:02:33.889Z,611.00
2023-03-18T05:03:23.924Z,611.00
2023-03-18T05:04:14.135Z,616.00
2023-03-18T05:05:04.106Z,613.00
2023-03-18T05:05:54.143Z,594.00
2023-03-18T05:06:44.174Z,607.00
2023-03-18T05:07:34.245Z,617.00
2023-03-18T05:08:24.277Z,616.00
2023-03-18T05:09:14.386Z,599.00
2023-03-18T05:10:04.419Z,607.00
2023-03-18T05:10:54.459Z,608.00
2023-03-18T05:11:44.488Z,617.00
2023-03-18T05:12:34.582Z,614.00
2023-03-18T05:13:24.610Z,610.00
2023-03-18T05:14:14.659Z,603.00
2023-03-18T05:15:04.699Z,595.00
2023-03-18T05:15:54.745Z,591.00
2023-03-18T05:16:44.890Z,583.00
2023-03-18T05:17:34.883Z,591.00
2023-03-18T05:18:24.894Z,587.00
2023-03-18T05:19:14.949Z,572.00
2023-03-18T05:20:04.978Z,571.00
2023-03-18T05:20:55.070Z,566.00
2023-03-18T05:21:45.114Z,559.00
2023-03-18T05:22:35.176Z,563.00
2023-03-18T05:23:25.197Z,561.00
2023-03-18T05:24:15.243Z,564.00
2023-03-18T05:25:05.273Z,571.00
2023-03-18T05:25:55.361Z,569.00
2023-03-18T05:26:45.390Z,567.00
2023-03-18T05:27:35.468Z,573.00
2023-03-18T05:28:25.504Z,574.00
2023-03-18T05:29:15.566Z,578.00
2023-03-18T05:30:05.606Z,581.00
2023-03-18T05:30:55.644Z,576.00
2023-03-18T05:31:45.727Z,574.00
2023-03-18T05:32:35.765Z,567.00
2023-03-18T05:33:25.792Z,567.00
2023-03-18T05:34:15.854Z,572.00
2023-03-18T05:35:05.895Z,558.00
2023-03-18T05:35:56.029Z,562.00
2023-03-18T05:36:46.000Z,563.00
2023-03-18T05:37:36.079Z,566.00
2023-03-18T05:38:26.119Z,565.00
2023-03-18T05:39:16.206Z,564.00
2023-03-18T05:40:06.440Z,575.00
2023-03-18T05:40:56.528Z,590.00
2023-03-18T05:41:46.546Z,588.00
2023-03-18T05:42:49.451Z,588.00
2023-03-18T05:43:27.959Z,588.00
2023-03-18T05:44:17.016Z,589.00
2023-03-18T05:45:07.032Z,590.00
2023-03-18T05:45:57.187Z,594.00
2023-03-18T05:46:47.163Z,596.00
2023-03-18T05:47:37.243Z,582.00
2023-03-18T05:48:27.277Z,578.00
2023-03-18T05:49:17.518Z,570.00
2023-03-18T05:50:07.528Z,588.00
2023-03-18T05:50:57.581Z,591.00
2023-03-18T05:51:47.611Z,584.00
2023-03-18T05:52:37.654Z,584.00
2023-03-18T05:53:27.715Z,576.00
2023-03-18T05:54:17.745Z,566.00
2023-03-18T05:55:07.773Z,576.00
2023-03-18T05:55:57.866Z,567.00
2023-03-18T05:56:47.897Z,578.00
2023-03-18T05:57:37.936Z,567.00
2023-03-18T05:58:27.982Z,582.00
2023-03-18T05:59:18.029Z,583.00
2023-03-18T06:00:08.063Z,580.00
2023-03-18T06:00:58.142Z,593.00
2023-03-18T06:01:48.177Z,611.00
2023-03-18T06:02:44.478Z,605.00
2023-03-18T06:03:28.329Z,597.00
2023-03-18T06:04:18.348Z,590.00
2023-03-18T06:05:08.413Z,607.00
2023-03-18T06:05:58.411Z,590.00
2023-03-18T06:06:48.699Z,598.00
2023-03-18T06:07:38.726Z,597.00
2023-03-18T06:08:28.756Z,593.00
2023-03-18T06:09:18.825Z,589.00
2023-03-18T06:10:08.861Z,569.00
2023-03-18T06:10:58.907Z,581.00
2023-03-18T06:11:48.936Z,588.00
2023-03-18T06:12:39.028Z,579.00
2023-03-18T06:13:29.044Z,588.00
2023-03-18T06:14:19.093Z,579.00
2023-03-18T06:15:09.138Z,580.00
2023-03-18T06:15:59.172Z,573.00
2023-03-18T06:16:49.299Z,562.00
2023-03-18T06:17:39.242Z,561.00
2023-03-18T06:18:29.288Z,562.00
2023-03-18T06:19:19.345Z,564.00
2023-03-18T06:20:09.471Z,558.00
2023-03-18T06:20:59.479Z,560.00
2023-03-18T06:21:49.542Z,566.00
2023-03-18T06:22:39.566Z,566.00
2023-03-18T06:23:29.622Z,574.00
2023-03-18T06:24:19.660Z,555.00
2023-03-18T06:25:09.700Z,559.00
2023-03-18T06:25:59.730Z,565.00
2023-03-18T06:26:49.852Z,556.00
2023-03-18T06:27:39.889Z,553.00
2023-03-18T06:28:29.971Z,551.00
2023-03-18T06:29:20.047Z,551.00
2023-03-18T06:30:10.075Z,563.00
2023-03-18T06:31:00.124Z,568.00
2023-03-18T06:31:50.189Z,557.00
2023-03-18T06:32:40.513Z,550.00
2023-03-18T06:33:30.307Z,555.00
2023-03-18T06:34:20.358Z,561.00
2023-03-18T06:35:10.395Z,555.00
2023-03-18T06:36:00.493Z,550.00
2023-03-18T06:36:50.501Z,547.00
2023-03-18T06:37:40.509Z,556.00
2023-03-18T06:38:30.578Z,554.00
2023-03-18T06:39:20.638Z,552.00
2023-03-18T06:40:10.707Z,552.00
2023-03-18T06:41:00.768Z,547.00
2023-03-18T06:41:50.848Z,560.00
2023-03-18T06:42:40.881Z,567.00
2023-03-18T06:43:30.927Z,564.00
2023-03-18T06:44:20.990Z,567.00
2023-03-18T06:45:11.046Z,561.00
2023-03-18T06:46:01.069Z,553.00
2023-03-18T06:46:51.185Z,548.00
2023-03-18T06:47:41.245Z,535.00
2023-03-18T06:48:31.260Z,541.00
2023-03-18T06:49:21.305Z,545.00
2023-03-18T06:50:11.379Z,549.00
2023-03-18T06:51:01.389Z,547.00
2023-03-18T06:51:51.463Z,548.00
2023-03-18T06:52:41.522Z,554.00
2023-03-18T06:53:31.582Z,543.00
2023-03-18T06:54:21.641Z,554.00
2023-03-18T06:55:11.669Z,546.00
2023-03-18T06:56:01.697Z,551.00
2023-03-18T06:56:51.776Z,562.00
2023-03-18T06:57:41.810Z,551.00
2023-03-18T06:58:31.847Z,552.00
2023-03-18T06:59:21.894Z,549.00
2023-03-18T07:00:12.000Z,538.00
2023-03-18T07:01:02.089Z,542.00
2023-03-18T07:01:52.203Z,538.00
2023-03-18T07:02:42.119Z,540.00
2023-03-18T07:03:32.190Z,544.00
2023-03-18T07:04:22.239Z,549.00
2023-03-18T07:05:12.304Z,564.00
2023-03-18T07:06:02.351Z,580.00
2023-03-18T07:06:52.380Z,569.00
2023-03-18T07:07:42.430Z,553.00
2023-03-18T07:08:32.585Z,546.00
2023-03-18T07:09:22.555Z,546.00
2023-03-18T07:10:12.580Z,552.00
2023-03-18T07:11:02.611Z,556.00
2023-03-18T07:11:52.652Z,551.00
2023-03-18T07:12:42.686Z,563.00
2023-03-18T07:13:32.770Z,557.00
2023-03-18T07:14:22.843Z,556.00
2023-03-18T07:15:12.885Z,543.00
2023-03-18T07:16:02.969Z,538.00
2023-03-18T07:16:52.967Z,556.00
2023-03-18T07:17:43.002Z,567.00
2023-03-18T07:18:33.030Z,574.00
2023-03-18T07:19:23.100Z,574.00
2023-03-18T07:20:13.205Z,569.00
2023-03-18T07:21:03.253Z,574.00
2023-03-18T07:21:53.317Z,572.00
2023-03-18T07:22:43.345Z,578.00
2023-03-18T07:23:33.424Z,580.00
2023-03-18T07:24:23.521Z,578.00
2023-03-18T07:25:13.535Z,598.00
2023-03-18T07:26:03.567Z,588.00
2023-03-18T07:26:53.636Z,575.00
2023-03-18T07:27:43.631Z,559.00
2023-03-18T07:28:33.707Z,556.00
2023-03-18T07:29:23.772Z,554.00
2023-03-18T07:30:13.824Z,555.00
2023-03-18T07:31:03.925Z,559.00
2023-03-18T07:31:53.989Z,558.00
2023-03-18T07:32:43.963Z,566.00
2023-03-18T07:33:34.028Z,574.00
2023-03-18T07:34:24.081Z,573.00
2023-03-18T07:35:14.177Z,569.00
2023-03-18T07:36:04.243Z,575.00
2023-03-18T07:36:54.388Z,571.00
2023-03-18T07:37:44.296Z,563.00
2023-03-18T07:38:34.372Z,560.00
2023-03-18T07:39:24.424Z,557.00
2023-03-18T07:40:14.495Z,557.00
2023-03-18T07:41:04.507Z,553.00
2023-03-18T07:41:54.619Z,556.00
2023-03-18T07:42:44.646Z,568.00
2023-03-18T07:43:34.692Z,563.00
2023-03-18T07:44:24.740Z,565.00
2023-03-18T07:45:14.764Z,576.00
2023-03-18T07:46:04.864Z,580.00
2023-03-18T07:46:54.885Z,577.00
2023-03-18T07:47:47.105Z,581.00
2023-03-18T07:48:34.975Z,566.00
2023-03-18T07:49:25.024Z,570.00
2023-03-18T07:50:15.185Z,561.00
2023-03-18T07:51:05.251Z,560.00
2023-03-18T07:51:55.336Z,558.00
2023-03-18T07:52:45.359Z,554.00
2023-03-18T07:53:35.462Z,559.00
2023-03-18T07:54:25.491Z,556.00
2023-03-18T07:55:15.540Z,546.00
2023-03-18T07:56:05.584Z,560.00
2023-03-18T07:56:55.727Z,581.00
2023-03-18T07:57:45.676Z,580.00
2023-03-18T07:58:35.758Z,570.00
2023-03-18T07:59:25.826Z,570.00
2023-03-18T08:00:15.873Z,579.00
2023-03-18T08:01:05.899Z,592.00
2023-03-18T08:01:55.974Z,606.00
2023-03-18T08:02:46.020Z,587.00
2023-03-18T08:03:36.081Z,572.00
2023-03-18T08:04:26.244Z,591.00
2023-03-18T08:05:16.398Z,611.00
2023-03-18T08:06:06.218Z,627.00
2023-03-18T08:06:56.262Z,639.00
2023-03-18T08:07:46.310Z,621.00
2023-03-18T08:08:36.347Z,602.00
2023-03-18T08:09:26.421Z,599.00
2023-03-18T08:10:16.459Z,595.00
2023-03-18T08:11:06.571Z,593.00
2023-03-18T08:11:56.596Z,599.00
2023-03-18T08:12:52.951Z,604.00
2023-03-18T08:13:37.691Z,604.00
2023-03-18T08:14:26.746Z,605.00
2023-03-18T08:15:16.815Z,607.00
2023-03-18T08:16:06.876Z,611.00
2023-03-18T08:16:56.875Z,613.00
2023-03-18T08:17:46.958Z,615.00
2023-03-18T08:18:36.999Z,615.00
2023-03-18T08:19:27.457Z,623.00
2023-03-18T08:20:17.265Z,626.00
2023-03-18T08:21:07.305Z,631.00
2023-03-18T08:21:57.354Z,629.00
2023-03-18T08:22:47.377Z,638.00
2023-03-18T08:23:37.462Z,630.00
2023-03-18T08:24:27.567Z,639.00
2023-03-18T08:25:17.595Z,644.00
2023-03-18T08:26:07.628Z,645.00
2023-03-18T08:26:57.663Z,634.00
2023-03-18T08:27:47.717Z,643.00
2023-03-18T08:28:37.738Z,639.00
2023-03-18T08:29:27.799Z,644.00
2023-03-18T08:30:17.824Z,649.00
2023-03-18T08:31:07.888Z,639.00
2023-03-18T08:31:57.969Z,640.00
2023-03-18T08:32:48.043Z,653.00
2023-03-18T08:33:38.117Z,673.00
2023-03-18T08:34:28.131Z,658.00
2023-03-18T08:35:20.215Z,655.00
2023-03-18T08:36:08.259Z,656.00
2023-03-18T08:36:58.330Z,657.00
2023-03-18T08:37:48.358Z,659.00
2023-03-18T08:38:38.459Z,661.00
2023-03-18T08:39:28.501Z,668.00
2023-03-18T08:40:18.608Z,697.00
2023-03-18T08:41:08.611Z,705.00
2023-03-18T08:41:58.672Z,699.00
2023-03-18T08:42:48.718Z,689.00
2023-03-18T08:43:39.234Z,663.00
2023-03-18T08:44:28.839Z,666.00
2023-03-18T08:45:18.953Z,659.00
2023-03-18T08:46:09.043Z,662.00
2023-03-18T08:46:59.018Z,666.00
2023-03-18T08:47:49.058Z,661.00
2023-03-18T08:48:39.149Z,668.00
2023-03-18T08:49:29.162Z,655.00
2023-03-18T08:50:19.210Z,653.00
2023-03-18T08:51:09.279Z,657.00
2023-03-18T08:51:59.301Z,653.00
2023-03-18T08:52:49.333Z,646.00
2023-03-18T08:53:39.492Z,655.00
2023-03-18T08:54:29.510Z,663.00
2023-03-18T08:55:19.645Z,657.00
2023-03-18T08:56:09.603Z,648.00
2023-03-18T08:56:59.687Z,641.00
2023-03-18T08:57:49.703Z,644.00
2023-03-18T08:58:39.789Z,658.00
2023-03-18T08:59:29.877Z,660.00
2023-03-18T09:00:19.886Z,644.00
2023-03-18T09:01:11.890Z,633.00
2023-03-18T09:01:59.987Z,631.00
2023-03-18T09:02:50.016Z,646.00
2023-03-18T09:03:40.180Z,659.00
2023-03-18T09:04:30.148Z,669.00
2023-03-18T09:05:20.185Z,655.00
2023-03-18T09:06:10.394Z,659.00
2023-03-18T09:07:00.434Z,654.00
2023-03-18T09:07:50.463Z,647.00
2023-03-18T09:08:40.615Z,638.00
2023-03-18T09:09:41.037Z,644.00
2023-03-18T09:10:21.644Z,644.00
2023-03-18T09:11:10.693Z,644.00
2023-03-18T09:12:00.757Z,639.00
2023-03-18T09:12:50.817Z,632.00
2023-03-18T09:13:40.928Z,635.00
2023-03-18T09:14:30.964Z,637.00
2023-03-18T09:15:21.045Z,635.00
2023-03-18T09:16:11.124Z,640.00
2023-03-18T09:17:01.333Z,642.00
2023-03-18T09:18:08.075Z,650.00
2023-03-18T09:18:44.832Z,650.00
2023-03-18T09:19:31.411Z,651.00
2023-03-18T09:20:21.442Z,653.00
2023-03-18T09:21:11.500Z,654.00
2023-03-18T09:22:01.577Z,660.00
2023-03-18T09:22:51.644Z,660.00
2023-03-18T09:23:41.719Z,691.00
2023-03-18T09:24:32.029Z,674.00
2023-03-18T09:25:22.061Z,665.00
2023-03-18T09:26:12.093Z,699.00
2023-03-18T09:27:02.182Z,680.00
2023-03-18T09:27:52.212Z,655.00
2023-03-18T09:28:42.260Z,659.00
2023-03-18T09:29:32.342Z,667.00
2023-03-18T09:30:22.339Z,666.00
2023-03-18T09:31:12.513Z,661.00
2023-03-18T09:32:02.506Z,664.00
2023-03-18T09:32:52.609Z,670.00
2023-03-18T09:33:42.627Z,695.00
2023-03-18T09:34:32.664Z,694.00
2023-03-18T09:35:22.706Z,664.00
2023-03-18T09:36:12.839Z,714.00
2023-03-18T09:37:02.835Z,668.00
2023-03-18T09:37:52.906Z,675.00
2023-03-18T09:38:43.002Z,667.00
2023-03-18T09:39:33.065Z,662.00
2023-03-18T09:40:23.130Z,662.00
2023-03-18T09:41:13.154Z,670.00
2023-03-18T09:42:03.256Z,670.00
2023-03-18T09:42:53.278Z,668.00
2023-03-18T09:43:43.321Z,706.00
2023-03-18T09:44:33.370Z,690.00
2023-03-18T09:45:23.408Z,704.00
2023-03-18T09:46:13.611Z,657.00
2023-03-18T09:47:03.743Z,662.00
2023-03-18T09:47:53.566Z,676.00
2023-03-18T09:48:43.601Z,705.00
2023-03-18T09:49:33.663Z,714.00
2023-03-18T09:50:23.708Z,688.00
2023-03-18T09:51:13.731Z,672.00
2023-03-18T09:52:03.818Z,695.00
2023-03-18T09:52:53.846Z,686.00
2023-03-18T09:53:43.937Z,679.00
2023-03-18T09:54:34.000Z,709.00
2023-03-18T09:55:24.042Z,724.00
2023-03-18T09:56:14.076Z,723.00
2023-03-18T09:57:04.125Z,716.00
2023-03-18T09:57:54.158Z,660.00
2023-03-18T09:58:44.238Z,660.00
2023-03-18T09:59:34.781Z,657.00
2023-03-18T10:00:24.490Z,657.00
2023-03-18T10:01:14.409Z,658.00
2023-03-18T10:02:04.617Z,660.00
2023-03-18T10:02:54.725Z,663.00
2023-03-18T10:03:44.751Z,668.00
2023-03-18T10:04:35.071Z,679.00
2023-03-18T10:05:25.112Z,693.00
2023-03-18T10:06:15.152Z,666.00
2023-03-18T10:07:05.194Z,655.00
2023-03-18T10:07:55.232Z,657.00
2023-03-18T10:08:45.274Z,645.00
2023-03-18T10:09:35.342Z,658.00
2023-03-18T10:10:25.395Z,664.00
2023-03-18T10:11:15.432Z,682.00
2023-03-18T10:12:05.476Z,665.00
2023-03-18T10:12:55.506Z,652.00
2023-03-18T10:13:45.553Z,655.00
2023-03-18T10:14:36.441Z,640.00
2023-03-18T10:15:25.662Z,643.00
2023-03-18T10:16:15.771Z,631.00
2023-03-18T10:17:05.798Z,644.00
2023-03-18T10:17:55.835Z,643.00
2023-03-18T10:18:45.921Z,648.00
2023-03-18T10:19:35.943Z,668.00
2023-03-18T10:20:25.988Z,682.00
2023-03-18T10:21:16.038Z,702.00
2023-03-18T10:22:06.073Z,679.00
2023-03-18T10:22:56.127Z,658.00
2023-03-18T10:23:46.163Z,659.00
2023-03-18T10:24:36.256Z,655.00